createdAt,value
2023-03-06T00:02:07.939Z,100085.69
2023-03-06T00:04:35.648Z,100080.84
2023-03-06T00:07:04.735Z,100071.00
2023-03-06T00:09:32.396Z,100070.91
2023-03-06T00:12:00.031Z,100068.47
2023-03-06T00:14:27.790Z,100064.78
2023-03-06T00:16:56.825Z,100065.06
2023-03-06T00:19:24.904Z,100057.53
2023-03-06T00:21:52.531Z,100054.53
2023-03-06T00:24:21.604Z,100043.69
2023-03-06T00:26:49.272Z,100031.66
2023-03-06T00:29:17.009Z,100030.06
2023-03-06T00:31:47.758Z,100033.47
2023-03-06T00:34:15.822Z,100030.25
2023-03-06T00:36:43.488Z,100024.03
2023-03-06T00:39:11.112Z,100015.09
2023-03-06T00:41:40.454Z,100020.53
2023-03-06T00:44:08.260Z,100012.94
2023-03-06T00:46:36.041Z,100012.56
2023-03-06T00:49:03.893Z,100002.53
2023-03-06T00:51:31.542Z,100000.78
2023-03-06T00:53:59.227Z,100009.06
2023-03-06T00:56:26.891Z,100003.75
2023-03-06T00:58:55.862Z,100008.16
2023-03-06T01:01:23.936Z,99988.84
2023-03-06T01:03:51.577Z,99991.34
2023-03-06T01:06:19.221Z,99994.84
2023-03-06T01:08:47.016Z,99995.69
2023-03-06T01:11:14.748Z,99997.28
2023-03-06T01:13:42.394Z,99987.16
2023-03-06T01:16:13.534Z,99996.28
2023-03-06T01:18:41.827Z,99995.16
2023-03-06T01:21:09.838Z,99994.78
2023-03-06T01:23:37.533Z,100001.06
2023-03-06T01:26:05.835Z,99996.56
2023-03-06T01:28:35.116Z,99990.81
2023-03-06T01:31:02.876Z,99994.06
2023-03-06T01:33:31.972Z,100000.91
2023-03-06T01:35:59.713Z,99995.16
2023-03-06T01:38:27.371Z,99991.13
2023-03-06T01:40:54.987Z,99989.94
2023-03-06T01:43:31.361Z,99974.75
2023-03-06T01:46:38.675Z,99974.66
2023-03-06T01:49:12.764Z,99974.34
2023-03-06T01:51:42.452Z,99971.03
2023-03-06T01:54:14.292Z,99967.31
2023-03-06T01:56:44.140Z,99958.88
2023-03-06T01:59:11.928Z,99966.75
2023-03-06T02:01:40.436Z,99952.94
2023-03-06T02:04:10.152Z,99952.72
2023-03-06T02:06:42.275Z,99946.28
2023-03-06T02:09:10.648Z,99944.34
2023-03-06T02:11:38.542Z,99933.69
2023-03-06T02:14:06.396Z,99937.31
2023-03-06T02:16:34.916Z,99935.63
2023-03-06T02:19:03.132Z,99935.75
2023-03-06T02:21:34.560Z,99933.41
2023-03-06T02:24:16.664Z,99930.66
2023-03-06T02:26:46.508Z,99935.13
2023-03-06T02:29:15.937Z,99927.03
2023-03-06T02:31:43.608Z,99927.38
2023-03-06T02:34:40.993Z,99920.25
2023-03-06T02:37:10.956Z,99920.81
2023-03-06T02:39:41.967Z,99916.50
2023-03-06T02:42:11.095Z,99914.81
2023-03-06T02:44:38.781Z,99903.38
2023-03-06T02:47:07.807Z,99908.00
2023-03-06T02:49:35.504Z,99906.31
2023-03-06T02:52:03.236Z,99899.63
2023-03-06T02:54:31.009Z,99904.38
2023-03-06T02:56:58.711Z,99891.31
2023-03-06T02:59:27.887Z,99894.50
2023-03-06T03:01:55.592Z,99886.25
2023-03-06T03:04:23.489Z,99888.06
2023-03-06T03:06:51.197Z,99883.16
2023-03-06T03:09:18.868Z,99881.16
2023-03-06T03:11:46.543Z,99882.13
2023-03-06T03:14:14.204Z,99878.50
2023-03-06T03:16:43.241Z,99877.59
2023-03-06T03:19:10.926Z,99873.06
2023-03-06T03:21:38.902Z,99870.28
2023-03-06T03:24:07.223Z,99868.47
2023-03-06T03:26:34.899Z,99867.66
2023-03-06T03:29:04.649Z,99852.06
2023-03-06T03:31:32.636Z,99847.59
2023-03-06T03:34:02.342Z,99843.38
2023-03-06T03:36:30.086Z,99836.81
2023-03-06T03:38:57.812Z,99842.31
2023-03-06T03:41:25.448Z,99844.84
2023-03-06T03:43:53.163Z,99839.41
2023-03-06T03:46:21.650Z,99830.56
2023-03-06T03:48:49.480Z,99830.78
2023-03-06T03:51:18.806Z,99832.88
2023-03-06T03:53:46.606Z,99818.66
2023-03-06T03:56:14.547Z,99821.16
2023-03-06T03:58:42.217Z,99820.13
2023-03-06T04:01:09.899Z,99823.59
2023-03-06T04:03:37.681Z,99812.63
2023-03-06T04:06:05.708Z,99816.66
2023-03-06T04:08:34.763Z,99808.25
2023-03-06T04:11:02.904Z,99806.44
2023-03-06T04:13:30.783Z,99805.44
2023-03-06T04:15:59.679Z,99813.72
2023-03-06T04:18:28.474Z,99808.00
2023-03-06T04:20:56.338Z,99814.66
2023-03-06T04:23:24.296Z,99812.56
2023-03-06T04:25:53.372Z,99809.31
2023-03-06T04:28:21.381Z,99805.13
2023-03-06T04:30:49.049Z,99802.13
2023-03-06T04:33:16.761Z,99799.59
2023-03-06T04:35:44.497Z,99800.38
2023-03-06T04:38:12.187Z,99802.53
2023-03-06T04:40:39.876Z,99799.00
2023-03-06T04:43:09.103Z,99796.94
2023-03-06T04:45:36.962Z,99799.13
2023-03-06T04:48:05.149Z,99801.81
2023-03-06T04:50:32.966Z,99802.53
2023-03-06T04:53:01.508Z,99794.91
2023-03-06T04:55:29.912Z,99787.78
2023-03-06T04:57:59.000Z,99789.59
2023-03-06T05:00:31.402Z,99788.16
2023-03-06T05:02:59.602Z,99776.88
2023-03-06T05:05:27.924Z,99785.50
2023-03-06T05:07:55.789Z,99783.78
2023-03-06T05:10:23.560Z,99785.19
2023-03-06T05:12:51.285Z,99772.16
2023-03-06T05:15:19.338Z,99779.31
2023-03-06T05:17:48.547Z,99768.56
2023-03-06T05:20:18.193Z,99774.09
2023-03-06T05:22:45.857Z,99768.25
2023-03-06T05:25:13.833Z,99772.53
2023-03-06T05:27:42.049Z,99782.09
2023-03-06T05:30:13.584Z,99775.19
2023-03-06T05:32:41.655Z,99773.19
2023-03-06T05:35:18.600Z,99772.09
2023-03-06T05:37:46.675Z,99773.84
2023-03-06T05:40:15.241Z,99775.25
2023-03-06T05:42:43.299Z,99769.59
2023-03-06T05:45:12.248Z,99776.03
2023-03-06T05:47:39.904Z,99774.69
2023-03-06T05:50:10.348Z,99778.72
2023-03-06T05:52:39.968Z,99779.69
2023-03-06T05:55:09.217Z,99776.38
2023-03-06T05:57:36.926Z,99781.66
2023-03-06T06:00:05.518Z,99777.56
2023-03-06T06:02:33.254Z,99768.88
2023-03-06T06:05:02.408Z,99775.03
2023-03-06T06:07:30.187Z,99776.97
2023-03-06T06:09:59.188Z,99770.44
2023-03-06T06:12:27.291Z,99771.56
2023-03-06T06:14:55.040Z,99780.75
2023-03-06T06:17:22.860Z,99777.59
2023-03-06T06:19:50.509Z,99780.88
2023-03-06T06:22:18.213Z,99777.78
2023-03-06T06:24:45.910Z,99780.88
2023-03-06T06:27:14.955Z,99775.78
2023-03-06T06:29:42.595Z,99778.28
2023-03-06T06:32:10.308Z,99779.19
2023-03-06T06:34:38.002Z,99779.06
2023-03-06T06:37:05.764Z,99773.72
2023-03-06T06:39:33.467Z,99777.13
2023-03-06T06:42:26.135Z,99777.47
2023-03-06T06:44:51.468Z,99772.44
2023-03-06T06:47:24.632Z,99780.19
2023-03-06T06:49:53.754Z,99787.38
2023-03-06T06:52:21.746Z,99789.88
2023-03-06T06:54:49.525Z,99792.91
2023-03-06T06:57:17.630Z,99792.19
2023-03-06T06:59:45.392Z,99789.63
2023-03-06T07:02:15.841Z,99795.53
2023-03-06T07:05:00.387Z,99794.06
2023-03-06T07:07:30.805Z,99789.97
2023-03-06T07:09:58.540Z,99799.91
2023-03-06T07:12:26.264Z,99789.50
2023-03-06T07:14:53.985Z,99798.13
2023-03-06T07:17:22.998Z,99794.25
2023-03-06T07:19:51.258Z,99801.16
2023-03-06T07:22:19.020Z,99805.53
2023-03-06T07:24:46.844Z,99801.44
2023-03-06T07:27:14.529Z,99796.56
2023-03-06T07:29:44.031Z,99799.50
2023-03-06T07:32:11.777Z,99798.94
2023-03-06T07:34:41.042Z,99798.75
2023-03-06T07:37:08.760Z,99803.72
2023-03-06T07:39:36.422Z,99808.09
2023-03-06T07:42:04.306Z,99812.19
2023-03-06T07:44:32.758Z,99809.31
2023-03-06T07:47:00.416Z,99807.91
2023-03-06T07:49:28.061Z,99816.88
2023-03-06T07:51:57.095Z,99822.03
2023-03-06T07:54:24.849Z,99808.91
2023-03-06T07:56:53.082Z,99819.72
2023-03-06T07:59:20.816Z,99826.19
2023-03-06T08:01:48.529Z,99819.97
2023-03-06T08:04:16.193Z,99821.34
2023-03-06T08:06:43.866Z,99823.31
2023-03-06T08:09:12.917Z,99840.13
2023-03-06T08:11:40.638Z,99834.47
2023-03-06T08:14:08.370Z,99832.47
2023-03-06T08:16:36.222Z,99829.00
2023-03-06T08:19:03.966Z,99827.66
2023-03-06T08:21:31.683Z,99830.69
2023-03-06T08:23:59.718Z,99825.66
2023-03-06T08:26:31.046Z,99826.31
2023-03-06T08:29:00.698Z,99827.94
2023-03-06T08:31:30.670Z,99832.84
2023-03-06T08:34:00.317Z,99842.25
2023-03-06T08:36:28.162Z,99847.53
2023-03-06T08:38:55.947Z,99847.25
2023-03-06T08:41:23.797Z,99842.94
2023-03-06T08:43:53.338Z,99854.16
2023-03-06T08:46:22.208Z,99846.56
2023-03-06T08:48:50.222Z,99852.13
2023-03-06T08:51:18.690Z,99853.28
2023-03-06T08:53:46.991Z,99857.56
2023-03-06T08:56:18.720Z,99850.22
2023-03-06T08:58:47.033Z,99849.63
2023-03-06T09:01:18.554Z,99841.47
2023-03-06T09:03:46.797Z,99840.81
2023-03-06T09:06:15.090Z,99835.09
2023-03-06T09:08:44.454Z,99844.81
2023-03-06T09:11:12.676Z,99845.16
2023-03-06T09:13:40.694Z,99825.38
2023-03-06T09:16:08.861Z,99847.97
2023-03-06T09:18:38.245Z,99841.88
2023-03-06T09:21:06.904Z,99829.66
2023-03-06T09:23:35.265Z,99833.16
2023-03-06T09:26:03.140Z,99839.91
2023-03-06T09:28:31.192Z,99843.22
2023-03-06T09:30:59.243Z,99837.34
2023-03-06T09:33:28.758Z,99836.00
2023-03-06T09:35:58.600Z,99840.44
2023-03-06T09:38:27.729Z,99835.84
2023-03-06T09:43:37.014Z,99839.97
2023-03-06T09:46:10.616Z,99835.56
2023-03-06T09:48:42.914Z,99834.69
2023-03-06T09:51:15.869Z,99840.06
2023-03-06T09:53:54.384Z,99848.34
2023-03-06T09:56:23.885Z,99843.75
2023-03-06T09:58:55.248Z,99845.03
2023-03-06T10:01:24.886Z,99828.38
2023-03-06T10:03:55.890Z,99841.03
2023-03-06T10:06:27.476Z,99833.00
2023-03-06T10:08:59.388Z,99846.38
2023-03-06T10:11:30.956Z,99829.34
2023-03-06T10:14:09.225Z,99837.53
2023-03-06T10:16:37.029Z,99840.13
2023-03-06T10:19:08.353Z,99829.38
2023-03-06T10:21:44.622Z,99811.94
2023-03-06T10:24:21.436Z,99820.47
2023-03-06T10:26:53.693Z,99820.91
2023-03-06T10:29:39.321Z,99828.84
2023-03-06T10:32:13.735Z,99842.09
2023-03-06T10:34:42.861Z,99820.91
2023-03-06T10:37:19.515Z,99823.44
2023-03-06T10:39:47.487Z,99819.06
2023-03-06T10:42:15.118Z,99807.66
2023-03-06T10:44:43.345Z,99814.97
2023-03-06T10:47:29.952Z,99808.56
2023-03-06T10:49:59.490Z,99808.03
2023-03-06T10:52:31.027Z,99815.78
2023-03-06T10:55:23.587Z,99821.31
2023-03-06T10:57:51.341Z,99828.75
2023-03-06T11:00:28.937Z,99838.81
2023-03-06T11:03:14.752Z,99836.13
2023-03-06T11:05:42.514Z,99846.13
2023-03-06T11:08:21.860Z,99839.25
2023-03-06T11:10:57.101Z,99848.72
2023-03-06T11:13:27.368Z,99852.59
2023-03-06T11:16:05.119Z,99854.06
2023-03-06T11:18:37.571Z,99837.81
2023-03-06T11:21:09.056Z,99833.91
2023-03-06T11:23:42.486Z,99831.75
2023-03-06T11:26:31.097Z,99837.81
2023-03-06T11:29:07.614Z,99827.38
2023-03-06T11:31:39.311Z,99832.63
2023-03-06T11:34:14.436Z,99837.97
2023-03-06T11:36:47.604Z,99823.53
2023-03-06T11:39:23.908Z,99800.81
2023-03-06T11:41:58.934Z,99792.66
2023-03-06T11:44:36.868Z,99795.22
2023-03-06T11:47:10.265Z,99814.16
2023-03-06T11:49:42.084Z,99807.22
2023-03-06T11:52:18.990Z,99792.53
2023-03-06T11:54:53.120Z,99809.63
2023-03-06T11:57:24.096Z,99796.06
2023-03-06T12:00:00.018Z,99808.19
2023-03-06T12:02:40.654Z,99804.63
2023-03-06T12:05:22.615Z,99802.63
2023-03-06T12:07:55.896Z,99799.06
2023-03-06T12:10:27.744Z,99805.09
2023-03-06T12:13:13.367Z,99788.56
2023-03-06T12:15:53.536Z,99800.25
2023-03-06T12:18:34.264Z,99810.75
2023-03-06T12:21:05.686Z,99809.53
2023-03-06T12:24:01.821Z,99789.75
2023-03-06T12:26:55.973Z,99793.59
2023-03-06T12:29:34.525Z,99787.88
2023-03-06T12:32:14.130Z,99790.81
2023-03-06T12:35:01.509Z,99810.38
2023-03-06T12:37:35.468Z,99796.56
2023-03-06T12:40:20.760Z,99788.66
2023-03-06T12:43:03.173Z,99772.53
2023-03-06T12:45:32.085Z,99781.19
2023-03-06T12:48:00.333Z,99777.28
2023-03-06T12:50:29.690Z,99759.44
2023-03-06T12:52:59.277Z,99761.22
2023-03-06T12:55:27.784Z,99752.63
2023-03-06T12:57:56.855Z,99756.81
2023-03-06T13:01:04.668Z,99744.47
2023-03-06T13:03:39.378Z,99748.47
2023-03-06T13:06:22.737Z,99754.50
2023-03-06T13:09:13.158Z,99744.63
2023-03-06T13:12:03.761Z,99752.91
2023-03-06T13:14:54.810Z,99755.66
2023-03-06T13:17:28.068Z,99754.13
2023-03-06T13:20:35.619Z,99753.72
2023-03-06T13:23:43.105Z,99745.22
2023-03-06T13:26:12.108Z,99746.72
2023-03-06T13:28:44.988Z,99739.06
2023-03-06T13:31:26.376Z,99734.91
2023-03-06T13:33:59.805Z,99737.28
2023-03-06T13:36:29.917Z,99747.00
2023-03-06T13:39:08.593Z,99716.72
2023-03-06T13:41:58.313Z,99713.44
2023-03-06T13:44:47.344Z,99714.69
2023-03-06T13:48:01.411Z,99717.03
2023-03-06T13:50:34.540Z,99711.97
2023-03-06T13:53:32.817Z,99700.19
2023-03-06T13:56:37.098Z,99708.06
2023-03-06T13:59:18.376Z,99687.59
2023-03-06T14:01:53.842Z,99687.88
2023-03-06T14:04:38.668Z,99685.88
2023-03-06T14:07:23.008Z,99694.34
2023-03-06T14:09:58.818Z,99687.00
2023-03-06T14:12:29.967Z,99687.88
2023-03-06T14:15:00.500Z,99681.97
2023-03-06T14:17:30.548Z,99675.66
2023-03-06T14:20:03.255Z,99664.28
2023-03-06T14:22:30.969Z,99664.03
2023-03-06T14:25:01.787Z,99661.09
2023-03-06T14:27:43.467Z,99645.03
2023-03-06T14:30:16.101Z,99635.97
2023-03-06T14:32:44.299Z,99636.44
2023-03-06T14:35:27.289Z,99646.84
2023-03-06T14:37:56.667Z,99637.78
2023-03-06T14:40:31.990Z,99650.81
2023-03-06T14:43:22.698Z,99635.56
2023-03-06T14:45:52.028Z,99627.56
2023-03-06T14:48:19.883Z,99638.97
2023-03-06T14:50:53.618Z,99638.56
2023-03-06T14:53:25.184Z,99639.75
2023-03-06T14:55:54.272Z,99622.16
2023-03-06T14:58:27.450Z,99623.56
2023-03-06T15:00:56.572Z,99612.63
2023-03-06T15:03:26.772Z,99609.28
2023-03-06T15:05:56.386Z,99603.22
2023-03-06T15:08:27.621Z,99609.69
2023-03-06T15:10:56.595Z,99601.41
2023-03-06T15:13:26.626Z,99598.50
2023-03-06T15:15:59.807Z,99607.06
2023-03-06T15:18:29.813Z,99595.84
2023-03-06T15:21:09.808Z,99587.19
2023-03-06T15:23:39.330Z,99586.03
2023-03-06T15:26:31.410Z,99567.38
2023-03-06T15:29:08.900Z,99570.56
2023-03-06T15:31:38.463Z,99561.19
2023-03-06T15:34:23.322Z,99571.38
2023-03-06T15:36:55.231Z,99567.69
2023-03-06T15:39:31.263Z,99565.44
2023-03-06T15:41:59.590Z,99546.66
2023-03-06T15:44:27.705Z,99540.25
2023-03-06T15:47:07.724Z,99535.19
2023-03-06T15:49:37.901Z,99524.66
2023-03-06T15:52:07.432Z,99535.09
2023-03-06T15:54:35.402Z,99529.31
2023-03-06T15:57:04.347Z,99522.56
2023-03-06T15:59:33.225Z,99520.88
2023-03-06T16:02:04.348Z,99518.34
2023-03-06T16:04:32.056Z,99509.84
2023-03-06T16:06:59.740Z,99498.19
2023-03-06T16:09:28.764Z,99502.03
2023-03-06T16:11:56.455Z,99499.31
2023-03-06T16:14:24.468Z,99494.56
2023-03-06T16:16:54.049Z,99493.28
2023-03-06T16:19:26.238Z,99488.03
2023-03-06T16:21:54.996Z,99476.81
2023-03-06T16:24:22.719Z,99481.63
2023-03-06T16:26:53.345Z,99471.53
2023-03-06T16:29:22.494Z,99474.88
2023-03-06T16:31:50.210Z,99474.47
2023-03-06T16:34:19.822Z,99466.78
2023-03-06T16:36:48.825Z,99466.53
2023-03-06T16:39:17.570Z,99464.78
2023-03-06T16:41:46.105Z,99465.94
2023-03-06T16:44:15.196Z,99458.34
2023-03-06T16:46:45.818Z,99451.41
2023-03-06T16:49:16.860Z,99446.53
2023-03-06T16:51:45.110Z,99444.84
2023-03-06T16:54:12.969Z,99452.78
2023-03-06T16:56:40.705Z,99447.06
2023-03-06T16:59:08.836Z,99452.94
2023-03-06T17:01:38.582Z,99460.47
2023-03-06T17:04:06.552Z,99465.03
2023-03-06T17:06:34.202Z,99471.44
2023-03-06T17:09:01.948Z,99465.88
2023-03-06T17:11:29.684Z,99484.75
2023-03-06T17:13:57.387Z,99475.59
2023-03-06T17:16:25.018Z,99469.94
2023-03-06T17:18:58.133Z,99481.75
2023-03-06T17:21:27.044Z,99480.19
2023-03-06T17:23:54.756Z,99483.13
2023-03-06T17:26:22.500Z,99476.31
2023-03-06T17:28:50.188Z,99475.06
2023-03-06T17:31:21.689Z,99468.63
2023-03-06T17:33:49.631Z,99470.50
2023-03-06T17:36:19.261Z,99470.56
2023-03-06T17:38:47.238Z,99468.88
2023-03-06T17:41:15.122Z,99474.41
2023-03-06T17:43:43.283Z,99460.22
2023-03-06T17:46:13.425Z,99462.84
2023-03-06T17:48:41.537Z,99457.50
2023-03-06T17:51:09.933Z,99457.00
2023-03-06T17:53:39.483Z,99444.28
2023-03-06T17:56:09.626Z,99437.72
2023-03-06T17:58:37.408Z,99449.19
2023-03-06T18:01:11.140Z,99444.75
2023-03-06T18:03:38.854Z,99437.47
2023-03-06T18:06:09.387Z,99438.94
2023-03-06T18:08:37.624Z,99434.81
2023-03-06T18:11:08.386Z,99443.94
2023-03-06T18:13:37.497Z,99435.34
2023-03-06T18:16:06.246Z,99438.25
2023-03-06T18:18:34.055Z,99416.97
2023-03-06T18:21:04.606Z,99422.44
2023-03-06T18:23:32.326Z,99417.16
2023-03-06T18:26:11.797Z,99409.47
2023-03-06T18:28:42.464Z,99403.13
2023-03-06T18:31:15.884Z,99409.53
2023-03-06T18:33:43.625Z,99398.03
2023-03-06T18:36:11.441Z,99398.47
2023-03-06T18:38:40.126Z,99385.59
2023-03-06T18:41:08.427Z,99391.66
2023-03-06T18:43:38.338Z,99397.78
2023-03-06T18:46:07.051Z,99379.03
2023-03-06T18:48:34.906Z,99382.53
2023-03-06T18:51:05.473Z,99372.50
2023-03-06T18:53:33.190Z,99368.69
2023-03-06T18:56:00.962Z,99363.56
2023-03-06T18:58:28.976Z,99361.38
2023-03-06T19:00:59.711Z,99361.22
2023-03-06T19:03:27.496Z,99362.47
2023-03-06T19:05:55.787Z,99359.91
2023-03-06T19:08:23.774Z,99352.06
2023-03-06T19:10:51.790Z,99330.22
2023-03-06T19:13:19.498Z,99332.25
2023-03-06T19:15:48.985Z,99333.38
2023-03-06T19:18:18.978Z,99332.09
2023-03-06T19:20:46.663Z,99331.25
2023-03-06T19:23:14.516Z,99317.78
2023-03-06T19:25:42.213Z,99323.75
2023-03-06T19:28:09.898Z,99314.56
2023-03-06T19:30:40.867Z,99309.25
2023-03-06T19:33:08.546Z,99306.03
2023-03-06T19:35:37.656Z,99307.53
2023-03-06T19:38:05.353Z,99300.22
2023-03-06T19:40:33.009Z,99300.66
2023-03-06T19:43:00.708Z,99284.75
2023-03-06T19:45:28.463Z,99291.22
2023-03-06T19:48:00.797Z,99282.34
2023-03-06T19:50:29.600Z,99279.94
2023-03-06T19:52:59.453Z,99278.28
2023-03-06T19:55:28.645Z,99271.25
2023-03-06T19:57:56.336Z,99259.56
2023-03-06T20:00:24.168Z,99255.47
2023-03-06T20:02:51.936Z,99257.31
2023-03-06T20:05:20.117Z,99247.06
2023-03-06T20:07:47.810Z,99247.44
2023-03-06T20:10:17.121Z,99238.19
2023-03-06T20:12:45.183Z,99237.16
2023-03-06T20:15:13.072Z,99226.84
2023-03-06T20:17:41.095Z,99233.34
2023-03-06T20:20:10.915Z,99224.28
2023-03-06T20:22:38.656Z,99206.50
2023-03-06T20:25:07.154Z,99209.16
2023-03-06T20:27:36.261Z,99206.97
2023-03-06T20:30:06.435Z,99205.94
2023-03-06T20:32:35.446Z,99208.13
2023-03-06T20:35:03.522Z,99195.88
2023-03-06T20:37:31.307Z,99190.09
2023-03-06T20:39:59.079Z,99188.09
2023-03-06T20:42:26.806Z,99177.88
2023-03-06T20:44:55.967Z,99184.75
2023-03-06T20:47:23.616Z,99170.94
2023-03-06T20:49:51.335Z,99173.09
2023-03-06T20:52:19.031Z,99168.22
2023-03-06T20:54:47.069Z,99159.09
2023-03-06T20:57:14.741Z,99156.38
2023-03-06T20:59:42.497Z,99162.66
2023-03-06T21:02:14.792Z,99158.25
2023-03-06T21:04:42.585Z,99154.53
2023-03-06T21:07:10.345Z,99144.16
2023-03-06T21:09:39.582Z,99129.88
2023-03-06T21:12:07.497Z,99136.13
2023-03-06T21:14:35.361Z,99129.59
2023-03-06T21:17:03.092Z,99115.28
2023-03-06T21:19:32.161Z,99119.69
2023-03-06T21:21:59.821Z,99113.59
2023-03-06T21:24:27.487Z,99100.81
2023-03-06T21:26:55.329Z,99096.53
2023-03-06T21:29:22.999Z,99090.66
2023-03-06T21:31:50.688Z,99084.28
2023-03-06T21:34:18.418Z,99078.97
2023-03-06T21:36:47.426Z,99076.53
2023-03-06T21:39:15.103Z,99069.72
2023-03-06T21:41:42.780Z,99081.97
2023-03-06T21:44:11.589Z,99065.16
2023-03-06T21:46:39.353Z,99055.06
2023-03-06T21:49:07.056Z,99052.28
2023-03-06T21:51:34.933Z,99063.66
2023-03-06T21:54:04.407Z,99061.88
2023-03-06T21:56:33.430Z,99044.44
2023-03-06T21:59:01.366Z,99046.88
2023-03-06T22:01:30.133Z,99047.78
2023-03-06T22:03:58.462Z,99027.81
2023-03-06T22:06:27.329Z,99032.47
2023-03-06T22:08:56.448Z,99024.56
2023-03-06T22:11:26.834Z,99018.84
2023-03-06T22:13:54.531Z,99005.81
2023-03-06T22:16:22.401Z,99000.59
2023-03-06T22:18:51.733Z,99008.59
2023-03-06T22:21:21.357Z,98990.69
2023-03-06T22:23:50.269Z,98984.94
2023-03-06T22:26:17.922Z,98982.19
2023-03-06T22:28:47.412Z,98967.84
2023-03-06T22:31:17.155Z,98968.22
2023-03-06T22:33:45.078Z,98979.09
2023-03-06T22:36:14.525Z,98981.25
2023-03-06T22:38:43.370Z,98961.13
2023-03-06T22:41:12.293Z,98962.22
2023-03-06T22:43:40.248Z,98968.06
2023-03-06T22:46:10.873Z,98953.41
2023-03-06T22:48:38.685Z,98952.41
2023-03-06T22:51:07.963Z,98948.47
2023-03-06T22:53:35.777Z,98946.97
2023-03-06T22:56:05.364Z,98947.94
2023-03-06T22:58:36.972Z,98948.28
2023-03-06T23:01:06.877Z,98943.09
2023-03-06T23:03:36.412Z,98937.41
2023-03-06T23:06:07.032Z,98932.97
2023-03-06T23:08:34.705Z,98935.03
2023-03-06T23:11:02.452Z,98928.53
2023-03-06T23:13:30.166Z,98919.19
2023-03-06T23:15:57.925Z,98919.63
2023-03-06T23:18:29.003Z,98928.69
2023-03-06T23:20:58.853Z,98925.94
2023-03-06T23:23:26.623Z,98914.97
2023-03-06T23:25:54.479Z,98916.88
2023-03-06T23:28:22.191Z,98912.38
2023-03-06T23:30:49.907Z,98908.31
2023-03-06T23:33:17.668Z,98916.25
2023-03-06T23:35:45.438Z,98904.53
2023-03-06T23:38:14.551Z,98917.81
2023-03-06T23:40:42.276Z,98918.56
2023-03-06T23:43:09.980Z,98909.59
2023-03-06T23:45:37.634Z,98915.91
2023-03-06T23:48:07.090Z,98918.53
2023-03-06T23:50:34.786Z,98918.97
2023-03-06T23:53:02.526Z,98920.47
2023-03-06T23:55:31.567Z,98933.75
2023-03-06T23:57:59.218Z,98927.47
